Time;durP1;ratioP1;P1;durP2;ratioP2;P2;SDS_P1;SDS_P2;PMS_P1;PMS_P2;Temp;Humidity;BMP_temperature;BMP_pressure;BME280_temperature;BME280_humidity;BME280_pressure;Samples;Min_cycle;Max_cycle;Signal;HPM_P1;HPM_P2
2022/03/19 00:01:06;;;;;;;16.52;5.90;;;;;;;4.23;73.30;104113.53;5111947;27;20457;-69
2022/03/19 00:03:32;;;;;;;11.73;5.25;;;;;;;4.19;75.09;104110.78;5111467;27;20092;-69
2022/03/19 00:05:59;;;;;;;14.73;6.00;;;;;;;4.19;75.98;104116.00;5112472;27;20040;-69
2022/03/19 00:08:26;;;;;;;12.27;5.97;;;;;;;4.00;77.62;104121.50;5102808;28;20113;-69
2022/03/19 00:10:54;;;;;;;14.90;5.85;;;;;;;4.11;77.53;104120.09;5101892;27;20103;-69
2022/03/19 00:13:20;;;;;;;20.95;6.63;;;;;;;4.15;79.31;104116.75;5109643;28;20140;-69
2022/03/19 00:15:47;;;;;;;15.13;6.20;;;;;;;4.23;78.68;104120.44;5103951;28;20043;-69
2022/03/19 00:18:13;;;;;;;15.10;6.40;;;;;;;4.32;80.05;104108.56;5111231;28;20067;-69
2022/03/19 00:20:39;;;;;;;19.00;6.72;;;;;;;4.51;80.00;104109.09;5110465;28;20050;-69
2022/03/19 00:23:06;;;;;;;15.30;6.30;;;;;;;4.74;79.47;104113.16;5103823;27;20051;-69
2022/03/19 00:25:33;;;;;;;18.88;7.15;;;;;;;4.58;80.92;104121.44;5103774;27;20115;-69
2022/03/19 00:28:01;;;;;;;16.42;7.22;;;;;;;4.45;82.39;104112.41;5105840;27;20055;-69
2022/03/19 00:30:27;;;;;;;15.10;6.80;;;;;;;4.84;80.71;104108.25;5106159;27;20128;-69
2022/03/19 00:32:54;;;;;;;20.02;6.97;;;;;;;4.78;81.02;104102.91;5110327;27;20453;-68
2022/03/19 00:35:20;;;;;;;24.48;7.18;;;;;;;4.87;79.82;104097.94;5108515;28;20575;-68
2022/03/19 00:37:48;;;;;;;16.83;6.35;;;;;;;4.89;79.38;104105.75;5111030;28;20063;-68
2022/03/19 00:40:16;;;;;;;18.73;7.07;;;;;;;4.71;79.71;104093.19;5108058;28;20109;-68
2022/03/19 00:42:43;;;;;;;18.98;6.13;;;;;;;4.71;79.30;104107.91;5110784;28;20088;-68
2022/03/19 00:45:12;;;;;;;23.42;7.18;;;;;;;4.78;79.05;104104.63;5098168;28;20095;-69
2022/03/19 00:47:38;;;;;;;13.32;6.07;;;;;;;4.80;78.88;104102.94;5106680;28;20039;-69
2022/03/19 00:50:06;;;;;;;27.55;7.75;;;;;;;4.66;79.34;104101.69;5110538;28;20051;-69
2022/03/19 00:52:32;;;;;;;19.52;7.63;;;;;;;4.83;78.44;104106.50;5100657;27;20052;-69
2022/03/19 00:54:59;;;;;;;12.45;6.05;;;;;;;4.76;78.07;104103.72;5103640;27;20099;-68
2022/03/19 00:57:25;;;;;;;18.52;7.25;;;;;;;4.47;80.35;104100.34;5106233;28;20108;-69
2022/03/19 00:59:52;;;;;;;23.50;6.85;;;;;;;4.35;80.87;104106.09;5091739;28;20527;-69
2022/03/19 01:02:19;;;;;;;15.93;7.07;;;;;;;4.45;80.69;104107.22;5099115;28;20499;-69
2022/03/19 01:04:46;;;;;;;17.15;6.85;;;;;;;4.28;80.97;104105.88;5109409;27;20537;-69
2022/03/19 01:07:14;;;;;;;22.88;7.72;;;;;;;4.26;81.42;104102.34;5106818;28;20116;-68
2022/03/19 01:09:40;;;;;;;24.00;6.93;;;;;;;4.19;82.07;104113.41;5100244;28;20120;-68
2022/03/19 01:12:07;;;;;;;18.55;7.47;;;;;;;4.18;82.61;104115.09;5105941;27;20116;-68
2022/03/19 01:14:34;;;;;;;20.45;8.00;;;;;;;4.34;81.63;104108.63;5109332;27;20047;-68
2022/03/19 01:17:00;;;;;;;17.55;7.53;;;;;;;4.31;81.26;104104.25;5111204;27;20104;-68
2022/03/19 01:22:12;;;;;;;26.10;8.27;;;;;;;4.31;80.51;104104.25;5105940;28;20058;-69
2022/03/19 01:24:38;;;;;;;17.55;7.22;;;;;;;4.08;81.71;104109.63;5110405;28;20105;-69
2022/03/19 01:27:04;;;;;;;15.60;6.70;;;;;;;4.23;81.14;104107.44;5100818;28;20061;-69
2022/03/19 01:29:31;;;;;;;13.85;7.07;;;;;;;4.21;80.64;104109.16;5109451;27;20047;-69
2022/03/19 01:31:57;;;;;;;20.88;7.95;;;;;;;3.96;81.81;104110.13;5107750;28;20478;-69
2022/03/19 01:34:23;;;;;;;17.05;6.90;;;;;;;3.75;82.86;104114.69;5109878;27;20040;-69
2022/03/19 01:36:53;;;;;;;18.52;6.80;;;;;;;3.71;82.76;104111.13;5109248;28;20043;-69
2022/03/19 01:39:20;;;;;;;22.95;8.45;;;;;;;3.63;83.55;104102.22;5102897;27;20064;-69
2022/03/19 01:41:46;;;;;;;16.00;7.35;;;;;;;3.79;83.22;104098.38;5110079;28;20047;-69
2022/03/19 01:44:18;;;;;;;19.95;7.82;;;;;;;3.67;82.59;104108.38;5107024;28;20057;-69
2022/03/19 01:46:55;;;;;;;25.00;7.20;;;;;;;3.74;82.81;104095.66;5109798;28;20040;-69
2022/03/19 01:49:21;;;;;;;19.50;7.68;;;;;;;3.81;82.30;104097.59;5106822;27;20036;-69
2022/03/19 01:51:47;;;;;;;17.17;6.97;;;;;;;3.98;81.25;104094.63;5105761;27;20085;-69
2022/03/19 01:54:16;;;;;;;19.55;6.63;;;;;;;4.00;80.08;104099.00;5109844;28;20126;-69
2022/03/19 01:56:43;;;;;;;15.20;7.03;;;;;;;3.94;80.20;104098.84;5103085;28;20036;-69
2022/03/19 01:59:10;;;;;;;20.15;7.22;;;;;;;3.83;80.21;104097.66;5093833;28;20075;-69
2022/03/19 02:01:36;;;;;;;18.02;7.18;;;;;;;3.87;79.79;104102.97;5105603;27;20039;-69
2022/03/19 02:04:03;;;;;;;22.90;7.43;;;;;;;3.69;80.00;104101.56;5109938;27;20491;-69
2022/03/19 02:06:31;;;;;;;24.17;7.18;;;;;;;3.93;79.18;104092.75;5103476;28;20050;-69
2022/03/19 02:08:58;;;;;;;20.05;7.63;;;;;;;3.89;78.25;104093.50;5106261;28;20052;-68
2022/03/19 02:11:26;;;;;;;18.63;7.63;;;;;;;3.81;78.51;104097.59;5108502;28;20047;-68
2022/03/19 02:13:53;;;;;;;15.68;6.38;;;;;;;3.67;80.02;104088.50;5109218;28;20388;-68
2022/03/19 02:16:20;;;;;;;24.67;6.88;;;;;;;3.66;79.04;104091.09;5109515;28;20100;-68
2022/03/19 02:18:47;;;;;;;16.73;6.80;;;;;;;3.72;78.41;104086.94;5109262;27;20071;-68
2022/03/19 02:21:14;;;;;;;18.40;6.90;;;;;;;3.69;78.24;104091.16;5099641;28;20074;-68
2022/03/19 02:26:25;;;;;;;17.70;6.57;;;;;;;3.64;77.80;104082.34;5105790;28;20051;-68
2022/03/19 02:28:52;;;;;;;17.40;7.45;;;;;;;3.53;79.03;104081.16;5108094;28;20043;-68
2022/03/19 02:31:19;;;;;;;22.27;7.88;;;;;;;3.55;80.00;104077.75;5091949;28;20506;-68
2022/03/19 02:33:45;;;;;;;17.77;7.07;;;;;;;3.37;80.86;104088.47;5099748;28;20044;-68
2022/03/19 02:36:13;;;;;;;25.88;8.45;;;;;;;3.28;81.86;104093.38;5104972;28;20524;-68
2022/03/19 02:38:39;;;;;;;23.63;8.07;;;;;;;3.36;81.76;104085.84;5093425;28;20040;-70
2022/03/19 02:41:07;;;;;;;15.77;7.43;;;;;;;3.22;82.80;104092.28;5108625;28;20476;-69
2022/03/19 02:43:33;;;;;;;21.38;8.10;;;;;;;3.27;82.87;104089.00;5107829;28;20481;-69
2022/03/19 02:46:00;;;;;;;22.88;8.07;;;;;;;3.21;83.05;104085.34;5094036;28;20454;-69
2022/03/19 02:48:26;;;;;;;25.00;8.50;;;;;;;3.23;83.42;104092.34;5088666;28;20089;-69
2022/03/19 02:50:53;;;;;;;25.13;8.32;;;;;;;3.25;83.44;104082.88;5093652;28;20051;-70
2022/03/19 02:53:19;;;;;;;24.77;9.25;;;;;;;3.23;83.23;104083.66;5099068;28;20168;-69
2022/03/19 02:55:46;;;;;;;18.65;7.72;;;;;;;3.38;82.90;104086.75;5108737;28;20104;-69
2022/03/19 02:58:14;;;;;;;20.33;7.90;;;;;;;3.48;81.29;104081.00;5105364;28;20043;-69
2022/03/19 03:00:40;;;;;;;19.50;8.50;;;;;;;3.62;80.39;104086.63;5091602;28;20067;-69
2022/03/19 03:03:07;;;;;;;17.08;7.82;;;;;;;3.63;79.43;104080.59;5109478;28;20097;-69
2022/03/19 03:05:34;;;;;;;23.85;8.38;;;;;;;3.64;79.38;104082.34;5107343;28;20040;-69
2022/03/19 03:08:01;;;;;;;18.35;7.50;;;;;;;3.61;79.84;104071.88;5106055;28;20043;-69
2022/03/19 03:10:28;;;;;;;17.60;7.75;;;;;;;3.79;78.65;104068.13;5101347;28;20044;-69
2022/03/19 03:12:55;;;;;;;21.90;7.60;;;;;;;3.62;78.45;104064.13;5098342;28;20075;-70
2022/03/19 03:15:23;;;;;;;27.30;7.90;;;;;;;3.36;79.46;104070.28;5102932;28;20441;-69
2022/03/19 03:17:49;;;;;;;24.17;8.00;;;;;;;3.41;78.87;104079.94;5094698;28;20055;-70
2022/03/19 03:20:15;;;;;;;23.70;8.25;;;;;;;3.25;80.15;104074.25;5101077;28;20068;-69
2022/03/19 03:22:42;;;;;;;27.67;8.23;;;;;;;3.23;80.41;104074.19;5090168;28;20070;-69
2022/03/19 03:25:09;;;;;;;29.55;8.90;;;;;;;3.27;80.31;104076.03;5108515;28;20052;-69
2022/03/19 03:27:35;;;;;;;22.75;8.90;;;;;;;3.26;80.79;104078.56;5107289;28;20423;-70
2022/03/19 03:30:01;;;;;;;25.70;9.05;;;;;;;3.36;80.31;104065.09;5091330;28;20044;-69
2022/03/19 03:32:29;;;;;;;30.27;9.05;;;;;;;3.34;80.38;104066.72;5108938;28;20039;-70
2022/03/19 03:34:55;;;;;;;25.15;8.68;;;;;;;3.20;82.30;104070.63;5097169;28;20073;-70
2022/03/19 03:37:21;;;;;;;22.13;9.50;;;;;;;3.11;82.86;104067.72;5107491;28;20086;-69
2022/03/19 03:39:48;;;;;;;26.05;9.43;;;;;;;3.17;82.41;104076.59;5106809;28;20092;-69
2022/03/19 03:42:15;;;;;;;14.35;8.57;;;;;;;3.12;82.81;104070.38;5099022;28;20464;-69
2022/03/19 03:44:42;;;;;;;31.88;10.93;;;;;;;3.13;83.15;104069.53;5090615;28;20576;-70
2022/03/19 03:47:08;;;;;;;32.63;9.95;;;;;;;3.23;81.97;104073.28;5100939;28;20047;-70
2022/03/19 03:49:36;;;;;;;24.60;9.38;;;;;;;3.28;81.87;104072.63;5107431;28;20097;-69
2022/03/19 03:52:03;;;;;;;25.20;9.75;;;;;;;3.36;81.69;104065.94;5103184;28;20524;-70
2022/03/19 03:54:29;;;;;;;28.35;9.27;;;;;;;3.53;80.68;104061.28;5109408;28;20040;-70
2022/03/19 03:56:56;;;;;;;25.27;8.65;;;;;;;3.59;79.78;104052.78;5111641;28;20491;-70
2022/03/19 03:59:23;;;;;;;19.40;8.13;;;;;;;3.55;79.32;104061.34;5097500;27;20093;-70
2022/03/19 04:01:49;;;;;;;22.27;8.82;;;;;;;3.59;78.62;104064.03;5101986;28;20050;-70
2022/03/19 04:04:16;;;;;;;23.08;8.98;;;;;;;3.66;78.23;104060.78;5104637;28;20101;-69
2022/03/19 04:06:43;;;;;;;17.13;8.52;;;;;;;3.62;77.98;104056.34;5111914;27;20505;-69
2022/03/19 04:09:10;;;;;;;23.15;8.20;;;;;;;3.54;78.20;104057.84;5104381;27;20090;-70
2022/03/19 04:11:36;;;;;;;14.43;8.13;;;;;;;3.35;78.07;104053.81;5105880;27;20044;-70
2022/03/19 04:14:03;;;;;;;20.75;8.15;;;;;;;3.39;77.95;104052.22;5111522;27;20051;-69
2022/03/19 04:16:31;;;;;;;20.05;8.57;;;;;;;3.36;77.70;104052.13;5106062;28;20040;-69
2022/03/19 04:18:57;;;;;;;18.10;8.02;;;;;;;3.38;77.31;104053.91;5102673;28;20517;-69
2022/03/19 04:21:23;;;;;;;19.73;7.90;;;;;;;3.41;76.92;104053.13;5099223;27;20048;-70
2022/03/19 04:23:51;;;;;;;22.15;7.63;;;;;;;3.21;77.08;104043.84;5091637;28;20129;-70
2022/03/19 04:26:17;;;;;;;17.70;6.97;;;;;;;3.38;76.56;104046.13;5107263;28;20116;-69
2022/03/19 04:28:44;;;;;;;19.45;7.63;;;;;;;3.41;76.01;104053.13;5110777;27;20043;-69
2022/03/19 04:31:10;;;;;;;16.98;7.25;;;;;;;3.31;75.82;104041.59;5110847;27;20044;-69
2022/03/19 04:33:36;;;;;;;16.60;7.05;;;;;;;3.33;75.94;104042.50;5111226;27;20544;-69
2022/03/19 04:38:47;;;;;;;15.13;7.30;;;;;;;2.99;74.83;104034.53;5111076;27;20525;-70
2022/03/19 04:41:15;;;;;;;15.02;6.60;;;;;;;3.03;75.86;104019.94;5103509;27;20043;-69
2022/03/19 04:43:41;;;;;;;18.15;6.75;;;;;;;3.33;74.41;104018.28;5109915;27;20059;-70
2022/03/19 04:46:08;;;;;;;13.20;6.72;;;;;;;3.49;72.73;104017.03;5102867;28;20121;-70
2022/03/19 04:48:34;;;;;;;13.57;6.80;;;;;;;3.23;73.29;104013.66;5091110;28;20044;-69
2022/03/19 04:51:00;;;;;;;15.05;7.03;;;;;;;2.78;75.01;104016.56;5092010;27;20491;-69
2022/03/19 04:53:27;;;;;;;19.75;6.75;;;;;;;2.15;76.88;104009.19;5091086;28;20048;-69
2022/03/19 04:55:53;;;;;;;17.40;7.55;;;;;;;1.72;78.26;104025.78;5102553;28;20553;-70
2022/03/19 04:58:21;;;;;;;16.42;7.18;;;;;;;1.68;80.55;104029.09;5107397;27;20560;-70
2022/03/19 05:00:50;;;;;;;23.02;8.50;;;;;;;1.85;80.53;104037.44;5106521;27;20047;-69
2022/03/19 05:03:16;;;;;;;24.13;7.97;;;;;;;2.03;80.16;104042.44;5097242;28;20047;-70
2022/03/19 05:05:42;;;;;;;14.25;7.40;;;;;;;2.20;80.16;104047.38;5099773;28;20075;-70
2022/03/19 05:08:09;;;;;;;20.00;8.13;;;;;;;2.24;79.87;104045.78;5096356;28;20465;-70
2022/03/19 05:13:20;;;;;;;20.70;8.23;;;;;;;2.66;77.96;104031.69;5110340;28;20389;-69
2022/03/19 05:15:46;;;;;;;24.52;10.07;;;;;;;2.52;77.32;104040.72;5104617;27;20116;-69
2022/03/19 05:18:13;;;;;;;20.70;9.13;;;;;;;2.50;77.26;104049.28;5107193;27;20128;-69
2022/03/19 05:20:39;;;;;;;17.58;8.93;;;;;;;2.44;76.07;104049.94;5107645;27;20125;-69
2022/03/19 05:23:06;;;;;;;30.73;9.50;;;;;;;2.33;75.57;104064.22;5110324;27;20093;-69
2022/03/19 05:25:33;;;;;;;24.02;9.50;;;;;;;2.29;75.19;104064.97;5106499;28;20047;-69
2022/03/19 05:27:59;;;;;;;21.75;9.52;;;;;;;2.02;76.00;104064.84;5107228;28;20040;-69
2022/03/19 05:30:27;;;;;;;22.60;8.52;;;;;;;1.99;76.29;104061.28;5102144;28;20079;-69
2022/03/19 05:32:54;;;;;;;18.33;8.30;;;;;;;2.09;76.89;104065.94;5090406;28;20075;-69
2022/03/19 05:35:22;;;;;;;26.55;8.27;;;;;;;2.15;77.01;104067.03;5097584;28;20085;-69
2022/03/19 05:37:48;;;;;;;18.00;7.75;;;;;;;2.28;76.46;104060.59;5088482;28;20491;-70
2022/03/19 05:40:15;;;;;;;20.70;9.30;;;;;;;2.42;75.81;104056.78;5088654;28;20569;-70
2022/03/19 05:42:41;;;;;;;22.10;8.95;;;;;;;2.67;75.29;104059.38;5087804;28;20044;-70
2022/03/19 05:45:10;;;;;;;21.77;8.48;;;;;;;2.81;74.77;104063.28;5087003;28;20040;-69
2022/03/19 05:47:38;;;;;;;21.63;8.35;;;;;;;2.78;74.99;104062.31;5089257;28;20051;-69
2022/03/19 05:50:06;;;;;;;21.88;7.95;;;;;;;2.80;74.67;104074.50;5105054;28;20404;-70
2022/03/19 05:52:32;;;;;;;26.83;8.05;;;;;;;2.94;74.34;104070.66;5108454;28;20043;-70
2022/03/19 05:54:58;;;;;;;22.13;8.32;;;;;;;3.11;74.22;104063.41;5102434;28;20055;-70
2022/03/19 05:57:25;;;;;;;17.33;7.07;;;;;;;3.05;74.88;104055.44;5096271;28;20481;-70
2022/03/19 05:59:51;;;;;;;26.70;8.30;;;;;;;3.15;75.69;104065.28;5085187;28;20079;-69
2022/03/19 06:02:17;;;;;;;20.05;9.57;;;;;;;3.21;76.60;104062.00;5085700;28;20051;-69
2022/03/19 06:04:45;;;;;;;23.05;8.88;;;;;;;3.38;77.12;104055.63;5100624;27;20043;-69
2022/03/19 06:07:11;;;;;;;22.85;9.15;;;;;;;3.85;76.62;104060.50;5107004;28;20483;-69
2022/03/19 06:09:38;;;;;;;25.02;8.45;;;;;;;4.21;75.76;104052.84;5104486;28;20093;-69
2022/03/19 06:12:05;;;;;;;24.38;8.20;;;;;;;4.61;74.50;104054.81;5106014;28;20093;-69
2022/03/19 06:14:31;;;;;;;25.48;8.38;;;;;;;4.89;73.54;104058.97;5107088;28;20039;-69
2022/03/19 06:16:58;;;;;;;20.27;8.68;;;;;;;5.18;72.67;104055.34;5086482;28;20097;-69
2022/03/19 06:19:24;;;;;;;20.95;8.15;;;;;;;5.60;71.31;104049.34;5086042;28;20060;-70
2022/03/19 06:21:52;;;;;;;21.42;8.35;;;;;;;5.93;70.61;104052.66;5086824;28;20105;-70
2022/03/19 06:24:20;;;;;;;19.60;8.07;;;;;;;6.27;69.44;104051.59;5091496;28;20120;-70
2022/03/19 06:26:46;;;;;;;21.27;8.40;;;;;;;6.37;69.00;104037.88;5106919;28;20117;-70
2022/03/19 06:29:13;;;;;;;21.23;8.45;;;;;;;6.75;68.00;104031.63;5097910;28;20075;-69
2022/03/19 06:31:39;;;;;;;21.10;8.10;;;;;;;6.91;67.55;104034.47;5087722;28;20161;-69
2022/03/19 06:34:05;;;;;;;15.30;7.68;;;;;;;7.18;67.36;104037.47;5098789;28;20044;-69
2022/03/19 06:39:17;;;;;;;22.80;8.18;;;;;;;7.88;65.21;104033.19;5073577;28;20525;-68
2022/03/19 06:41:43;;;;;;;17.02;8.43;;;;;;;8.28;64.21;104030.16;5084548;28;20093;-67
2022/03/19 06:44:10;;;;;;;19.35;8.95;;;;;;;8.60;63.47;104034.00;5086868;28;20040;-68
2022/03/19 06:46:36;;;;;;;19.00;8.02;;;;;;;8.78;63.37;104041.13;5087032;28;20050;-69
2022/03/19 06:49:03;;;;;;;20.05;8.10;;;;;;;9.21;62.02;104044.91;5086317;28;20047;-68
2022/03/19 06:51:29;;;;;;;20.10;8.40;;;;;;;9.15;61.32;104044.91;5085318;28;20511;-68
2022/03/19 06:53:56;;;;;;;16.85;7.90;;;;;;;9.23;61.75;104045.81;5079354;28;20040;-68
2022/03/19 06:56:24;;;;;;;15.63;8.25;;;;;;;9.76;60.52;104041.72;5085799;28;20104;-68
2022/03/19 06:58:50;;;;;;;19.08;7.82;;;;;;;10.07;60.07;104041.84;5084826;28;20052;-68
2022/03/19 07:01:16;;;;;;;15.27;7.75;;;;;;;9.99;60.23;104027.81;5084913;28;20044;-69
2022/03/19 07:03:44;;;;;;;19.05;7.38;;;;;;;10.27;59.29;104023.56;5080567;28;20072;-69
2022/03/19 07:06:10;;;;;;;18.92;8.38;;;;;;;10.64;59.38;104027.97;5074417;28;20044;-69
2022/03/19 07:08:37;;;;;;;19.58;8.95;;;;;;;10.61;59.00;104028.84;5086076;28;20068;-68
2022/03/19 07:11:04;;;;;;;15.80;7.50;;;;;;;10.51;58.52;104024.47;5085616;28;20465;-68
2022/03/19 07:13:32;;;;;;;15.10;7.22;;;;;;;10.98;58.17;104028.81;5079327;28;20049;-68
2022/03/19 07:15:58;;;;;;;21.13;7.53;;;;;;;11.23;57.16;104027.91;5080611;28;20090;-68
2022/03/19 07:18:25;;;;;;;15.18;8.00;;;;;;;11.39;56.36;104029.59;5084803;28;20149;-68
2022/03/19 07:20:51;;;;;;;17.10;6.93;;;;;;;11.57;53.99;104024.28;5084924;28;20499;-69
2022/03/19 07:23:18;;;;;;;20.60;7.47;;;;;;;11.90;54.38;104025.06;5085285;28;20469;-69
2022/03/19 07:25:44;;;;;;;15.60;7.40;;;;;;;11.67;54.80;104035.66;5085186;28;20074;-68
2022/03/19 07:28:13;;;;;;;12.88;6.72;;;;;;;11.81;54.37;104033.00;5085871;28;20044;-68
2022/03/19 07:30:41;;;;;;;17.13;7.32;;;;;;;11.77;53.92;104032.13;5080571;28;20045;-68
2022/03/19 07:33:08;;;;;;;16.15;7.20;;;;;;;12.05;53.24;104022.34;5074827;28;20049;-68
2022/03/19 07:35:35;;;;;;;15.30;7.05;;;;;;;12.08;53.75;104032.88;5094676;28;20054;-68
2022/03/19 07:38:02;;;;;;;11.35;6.55;;;;;;;11.91;52.17;104034.69;5090066;28;20553;-69
2022/03/19 07:43:14;;;;;;;15.15;7.10;;;;;;;12.44;53.47;104023.84;5078437;28;20047;-69
2022/03/19 07:45:43;;;;;;;13.23;6.65;;;;;;;12.05;53.46;104017.06;5089237;28;20479;-68
2022/03/19 07:48:10;;;;;;;14.73;6.63;;;;;;;11.73;54.09;104021.63;5086693;28;20160;-68
2022/03/19 07:50:38;;;;;;;16.70;6.85;;;;;;;11.67;53.56;104006.75;5087756;28;20075;-68
2022/03/19 07:53:06;;;;;;;16.33;7.22;;;;;;;12.24;53.03;104005.56;5084806;28;20072;-68
2022/03/19 07:55:33;;;;;;;15.68;7.50;;;;;;;12.24;52.15;104008.19;5106750;28;20043;-68
2022/03/19 07:57:59;;;;;;;14.60;6.68;;;;;;;12.40;52.11;103999.31;5095920;28;20044;-68
2022/03/19 08:00:25;;;;;;;16.60;6.57;;;;;;;12.17;52.47;103996.84;5102319;28;20040;-68
2022/03/19 08:02:53;;;;;;;14.50;5.80;;;;;;;12.75;52.39;104000.78;5101302;28;20483;-66
2022/03/19 08:05:20;;;;;;;11.23;5.53;;;;;;;13.47;50.83;103997.41;5110940;27;20488;-67
2022/03/19 08:07:46;;;;;;;15.98;6.30;;;;;;;13.39;48.59;103995.72;5111179;28;20044;-67
2022/03/19 08:10:13;;;;;;;12.50;5.97;;;;;;;13.60;49.94;103987.53;5109158;27;20520;-67
2022/03/19 08:12:42;;;;;;;15.75;6.00;;;;;;;13.35;49.71;103978.19;5109143;27;20043;-67
2022/03/19 08:15:10;;;;;;;14.15;5.85;;;;;;;13.86;49.83;103985.44;5090990;28;20044;-67
2022/03/19 08:17:37;;;;;;;10.10;5.28;;;;;;;14.25;48.58;103981.34;5099163;28;20050;-68
2022/03/19 08:20:07;;;;;;;15.40;5.88;;;;;;;14.14;48.43;103984.16;5111632;27;20048;-67
2022/03/19 08:22:33;;;;;;;13.70;6.07;;;;;;;13.97;48.38;103974.72;5107745;28;20042;-67
2022/03/19 08:25:01;;;;;;;10.85;5.53;;;;;;;14.67;48.74;103973.66;5109588;27;20047;-67
2022/03/19 08:27:27;;;;;;;12.57;5.43;;;;;;;14.68;45.83;103978.00;5109150;28;20050;-68
2022/03/19 08:29:55;;;;;;;14.20;5.90;;;;;;;14.81;46.81;103971.63;5097790;28;20085;-67
2022/03/19 08:32:22;;;;;;;12.70;5.57;;;;;;;15.13;45.94;103969.25;5091257;28;20487;-67
2022/03/19 08:34:48;;;;;;;12.75;5.10;;;;;;;15.33;46.46;103976.78;5102494;28;20175;-67
2022/03/19 08:37:16;;;;;;;15.60;5.40;;;;;;;15.65;44.50;103970.84;5106663;27;20093;-69
2022/03/19 08:42:26;;;;;;;11.98;5.43;;;;;;;15.68;43.38;103966.34;5097797;28;20101;-67
2022/03/19 08:44:55;;;;;;;11.20;5.25;;;;;;;15.80;44.71;103966.09;5107608;27;20105;-67
2022/03/19 08:47:22;;;;;;;11.43;5.60;;;;;;;15.91;43.94;103968.47;5109400;28;20046;-66
2022/03/19 08:49:48;;;;;;;14.15;5.70;;;;;;;15.93;44.35;103977.25;5110276;27;20062;-67
2022/03/19 08:52:16;;;;;;;10.25;4.97;;;;;;;15.67;44.23;103966.41;5107511;27;20580;-67
2022/03/19 08:54:42;;;;;;;9.85;5.43;;;;;;;15.81;45.04;103962.53;5108761;27;20040;-67
2022/03/19 08:57:10;;;;;;;12.30;5.10;;;;;;;15.27;43.31;103961.03;5109365;28;20499;-67
2022/03/19 08:59:37;;;;;;;12.45;5.03;;;;;;;15.08;44.07;103961.41;5109333;28;20047;-66
2022/03/19 09:02:03;;;;;;;13.27;4.85;;;;;;;15.35;47.05;103957.34;5110037;28;20051;-67
2022/03/19 09:04:31;;;;;;;12.65;4.70;;;;;;;15.46;42.47;103957.09;5110266;28;20048;-67
2022/03/19 09:06:58;;;;;;;12.48;5.18;;;;;;;15.81;44.59;103943.16;5104391;28;20479;-67
2022/03/19 09:09:25;;;;;;;16.00;4.88;;;;;;;15.97;45.70;103949.81;5109561;28;20055;-66
2022/03/19 09:11:52;;;;;;;14.07;4.90;;;;;;;16.82;44.03;103948.53;5097006;28;20081;-67
2022/03/19 09:14:19;;;;;;;12.77;4.32;;;;;;;17.00;41.86;103939.19;5105841;27;20056;-67
2022/03/19 09:16:46;;;;;;;9.00;4.97;;;;;;;17.48;42.56;103921.88;5101154;28;20044;-67
2022/03/19 09:19:12;;;;;;;10.82;5.15;;;;;;;17.51;41.80;103919.09;5110268;27;20560;-67
2022/03/19 09:21:39;;;;;;;14.00;5.10;;;;;;;17.83;41.59;103925.25;5098863;28;20093;-67
2022/03/19 09:24:06;;;;;;;12.75;4.53;;;;;;;17.69;40.25;103916.84;5100444;27;20039;-67
2022/03/19 09:26:33;;;;;;;9.45;4.50;;;;;;;17.83;41.03;103919.94;5109615;27;20109;-67
2022/03/19 09:29:00;;;;;;;12.77;4.40;;;;;;;17.27;39.42;103917.22;5091688;27;20059;-66
2022/03/19 09:31:27;;;;;;;10.32;3.92;;;;;;;17.95;42.90;103903.63;5097396;28;20043;-67
2022/03/19 09:33:53;;;;;;;11.80;4.50;;;;;;;17.80;41.70;103909.44;5109570;28;20130;-67
2022/03/19 09:36:20;;;;;;;10.75;4.38;;;;;;;17.91;42.36;103897.53;5108174;27;20043;-66
2022/03/19 09:38:46;;;;;;;8.50;3.97;;;;;;;18.34;40.77;103894.31;5109917;28;20096;-66
2022/03/19 09:41:13;;;;;;;10.85;4.43;;;;;;;18.16;40.53;103891.41;5101888;28;20066;-66
2022/03/19 09:43:40;;;;;;;10.88;3.80;;;;;;;18.34;40.80;103891.66;5105922;27;20047;-67
2022/03/19 09:46:08;;;;;;;12.73;4.13;;;;;;;17.65;38.71;103881.59;5104862;28;20132;-66
2022/03/19 09:48:34;;;;;;;13.60;4.32;;;;;;;18.07;41.69;103889.91;5075622;28;20430;-67
2022/03/19 09:51:01;;;;;;;10.40;4.15;;;;;;;17.95;39.11;103883.25;5098631;28;20495;-67
2022/03/19 09:53:28;;;;;;;10.05;3.58;;;;;;;18.46;39.47;103864.66;5098879;28;20062;-66
2022/03/19 09:55:56;;;;;;;7.53;2.97;;;;;;;18.02;37.16;103865.31;5102546;28;20052;-66
2022/03/19 09:58:23;;;;;;;9.60;3.47;;;;;;;17.61;40.65;103860.50;5106252;28;20669;-66
2022/03/19 10:00:51;;;;;;;9.70;3.08;;;;;;;17.22;41.83;103858.13;5106395;28;20051;-67
2022/03/19 10:03:22;;;;;;;12.38;3.45;;;;;;;16.96;39.13;103853.59;5105961;28;20039;-67
2022/03/19 10:08:39;;;;;;;6.38;2.97;;;;;;;16.90;38.98;103844.97;5083135;28;20517;-66
2022/03/19 10:11:06;;;;;;;9.57;2.85;;;;;;;16.86;39.76;103846.81;5077647;28;20479;-66
2022/03/19 10:13:33;;;;;;;9.00;3.17;;;;;;;17.77;42.08;103833.44;5072436;28;20105;-65
2022/03/19 10:16:01;;;;;;;7.05;2.63;;;;;;;17.62;37.04;103833.06;5084899;28;20070;-65
2022/03/19 10:18:28;;;;;;;7.30;2.60;;;;;;;17.52;38.94;103827.13;5079494;28;20052;-65
2022/03/19 10:20:55;;;;;;;9.45;3.00;;;;;;;17.82;38.88;103833.25;5072935;28;20044;-65
2022/03/19 10:23:33;;;;;;;11.75;3.30;;;;;;;18.12;35.99;103834.88;5090639;28;20051;-65
2022/03/19 10:26:00;;;;;;;7.47;2.40;;;;;;;18.37;37.39;103819.81;5084853;28;20052;-65
2022/03/19 10:28:31;;;;;;;9.57;3.10;;;;;;;18.07;37.75;103820.03;5086769;28;20063;-65
2022/03/19 10:30:58;;;;;;;8.52;2.55;;;;;;;17.72;35.10;103822.09;5089293;28;20048;-65
2022/03/19 10:33:27;;;;;;;9.43;2.67;;;;;;;17.61;37.22;103818.91;5090271;28;20064;-65
2022/03/19 10:36:06;;;;;;;11.60;2.85;;;;;;;17.96;37.50;103817.72;5089842;28;20047;-65
2022/03/19 10:38:41;;;;;;;8.20;2.38;;;;;;;18.08;36.60;103819.09;5086815;28;20044;-64
2022/03/19 10:41:08;;;;;;;7.88;2.75;;;;;;;17.95;35.67;103808.91;5072089;28;20086;-65
2022/03/19 10:43:34;;;;;;;6.88;2.30;;;;;;;17.11;37.16;103812.50;5076632;28;20048;-66
2022/03/19 10:46:03;;;;;;;8.10;2.13;;;;;;;17.63;37.33;103802.91;5075407;28;20049;-65
2022/03/19 10:48:31;;;;;;;8.07;2.72;;;;;;;18.02;39.13;103798.94;5069479;28;20045;-66
2022/03/19 10:50:58;;;;;;;7.95;2.70;;;;;;;17.49;37.21;103798.03;5068338;28;20052;-65
2022/03/19 10:53:26;;;;;;;6.00;2.20;;;;;;;16.83;36.08;103791.25;5069283;28;20090;-65
2022/03/19 10:55:53;;;;;;;7.85;2.33;;;;;;;17.58;38.90;103794.25;5082561;28;20066;-65
2022/03/19 10:58:20;;;;;;;8.68;2.08;;;;;;;17.22;36.68;103786.53;5081194;28;20527;-65
2022/03/19 11:00:48;;;;;;;5.60;1.95;;;;;;;17.41;36.60;103777.06;5078740;28;20041;-65
2022/03/19 11:03:19;;;;;;;7.47;2.00;;;;;;;17.58;36.47;103786.31;5076869;28;20098;-64
2022/03/19 11:05:49;;;;;;;7.20;2.30;;;;;;;16.91;36.26;103770.72;5089480;28;20493;-65
2022/03/19 11:08:20;;;;;;;10.05;2.50;;;;;;;16.97;37.22;103769.63;5072514;28;20048;-64
2022/03/19 11:10:49;;;;;;;7.07;2.08;;;;;;;16.45;35.94;103767.63;5074408;28;20117;-64
2022/03/19 11:13:20;;;;;;;8.13;1.55;;;;;;;15.54;37.26;103768.28;5098017;28;20051;-64
2022/03/19 11:15:50;;;;;;;7.03;1.55;;;;;;;14.79;36.85;103778.81;5111190;28;20063;-64
2022/03/19 11:18:20;;;;;;;5.72;1.38;;;;;;;14.78;35.84;103763.84;5113252;28;20060;-64
2022/03/19 11:20:49;;;;;;;6.13;1.58;;;;;;;14.63;36.16;103755.41;5112333;28;20495;-64
2022/03/19 11:23:21;;;;;;;8.32;1.90;;;;;;;14.46;37.17;103755.72;5096014;28;20059;-65
2022/03/19 11:25:52;;;;;;;6.68;1.45;;;;;;;14.96;36.13;103734.41;5101542;28;20124;-65
2022/03/19 11:28:19;;;;;;;4.85;1.40;;;;;;;15.07;36.59;103736.81;5111452;28;20525;-65
2022/03/19 11:31:00;;;;;;;5.82;1.55;;;;;;;14.49;38.07;103747.75;5111279;28;20477;-65
2022/03/19 11:33:30;;;;;;;6.50;1.60;;;;;;;13.79;37.43;103742.91;5107540;28;20128;-65
2022/03/19 11:36:06;;;;;;;7.25;1.70;;;;;;;13.26;38.72;103739.41;5091816;28;20055;-65
2022/03/19 11:38:35;;;;;;;11.35;2.33;;;;;;;13.53;39.21;103740.69;5100967;28;20407;-64
2022/03/19 11:41:17;;;;;;;4.63;1.40;;;;;;;13.32;38.95;103735.78;5110973;28;20047;-65
2022/03/19 11:43:43;;;;;;;;;;;;;;;13.29;40.27;103736.72;5091245;28;20044;-64
2022/03/19 11:46:12;;;;;;;8.18;1.75;;;;;;;13.95;38.06;103747.88;5092928;28;20044;-65